createdAt,value
2023-03-11T00:01:12.552Z,6.13
2023-03-11T00:03:41.445Z,11.48
2023-03-11T00:06:10.302Z,7.00
2023-03-11T00:08:41.339Z,4.60
2023-03-11T00:11:10.599Z,4.68
2023-03-11T00:13:41.015Z,6.45
2023-03-11T00:16:10.827Z,4.78
2023-03-11T00:18:39.700Z,6.45
2023-03-11T00:21:16.457Z,5.82
2023-03-11T00:23:46.976Z,5.32
2023-03-11T00:26:16.039Z,5.57
2023-03-11T00:28:44.874Z,4.50
2023-03-11T00:31:14.266Z,4.68
2023-03-11T00:33:43.137Z,6.30
2023-03-11T00:36:24.055Z,8.00
2023-03-11T00:38:54.607Z,7.43
2023-03-11T00:41:23.447Z,6.97
2023-03-11T00:43:52.276Z,7.68
2023-03-11T00:46:21.266Z,7.35
2023-03-11T00:48:51.739Z,8.73
2023-03-11T00:51:20.711Z,6.93
2023-03-11T00:53:49.624Z,9.50
2023-03-11T00:56:19.919Z,6.60
2023-03-11T00:58:48.729Z,9.32
2023-03-11T01:01:20.057Z,11.18
2023-03-11T01:03:49.239Z,5.13
2023-03-11T01:06:18.852Z,5.50
2023-03-11T01:08:47.882Z,5.13
2023-03-11T01:11:16.793Z,4.80
2023-03-11T01:13:48.977Z,4.38
2023-03-11T01:16:17.950Z,4.05
2023-03-11T01:18:46.839Z,3.30
2023-03-11T01:21:15.748Z,4.32
2023-03-11T01:23:44.870Z,3.72
2023-03-11T01:26:14.824Z,4.25
2023-03-11T01:28:43.672Z,3.85
2023-03-11T01:31:14.071Z,3.40
2023-03-11T01:33:42.925Z,2.95
2023-03-11T01:36:11.764Z,3.10
2023-03-11T01:38:40.665Z,4.10
2023-03-11T01:41:11.352Z,3.63
2023-03-11T01:43:58.240Z,3.25
2023-03-11T01:46:37.870Z,2.65
2023-03-11T01:49:07.484Z,2.53
2023-03-11T01:51:42.084Z,3.05
2023-03-11T01:54:15.960Z,2.75
2023-03-11T01:56:46.484Z,2.85
2023-03-11T01:59:20.480Z,2.03
2023-03-11T02:01:58.223Z,3.28
2023-03-11T02:04:28.458Z,1.95
2023-03-11T02:06:58.308Z,2.47
2023-03-11T02:09:27.441Z,1.50
2023-03-11T02:11:57.876Z,0.73
2023-03-11T02:14:30.242Z,0.70
2023-03-11T02:17:02.019Z,0.77
2023-03-11T02:19:40.207Z,0.60
2023-03-11T02:22:11.450Z,0.82
2023-03-11T02:24:46.416Z,0.50
2023-03-11T02:27:19.176Z,1.30
2023-03-11T02:29:51.585Z,0.82
2023-03-11T02:32:22.482Z,1.25
2023-03-11T02:34:51.392Z,2.10
2023-03-11T02:37:20.638Z,2.47
2023-03-11T02:40:17.367Z,2.10
2023-03-11T02:42:47.675Z,2.10
2023-03-11T02:45:20.111Z,1.60
2023-03-11T02:47:50.188Z,2.85
2023-03-11T02:50:20.453Z,2.47
2023-03-11T02:52:50.760Z,2.17
2023-03-11T02:55:20.357Z,2.55
2023-03-11T02:57:50.637Z,2.58
2023-03-11T03:00:20.536Z,2.13
2023-03-11T03:02:58.560Z,1.85
2023-03-11T03:05:29.132Z,1.60
2023-03-11T03:08:00.038Z,2.22
2023-03-11T03:10:30.093Z,2.67
2023-03-11T03:13:00.944Z,2.97
2023-03-11T03:15:30.425Z,3.20
2023-03-11T03:17:59.420Z,2.55
2023-03-11T03:20:29.480Z,4.22
2023-03-11T03:23:02.066Z,4.20
2023-03-11T03:25:33.261Z,7.90
2023-03-11T03:28:07.843Z,4.40
2023-03-11T03:30:40.059Z,2.88
2023-03-11T03:33:09.579Z,2.00
2023-03-11T03:35:42.383Z,3.40
2023-03-11T03:38:17.591Z,5.68
2023-03-11T03:40:50.048Z,1.20
2023-03-11T03:45:57.608Z,2.75
2023-03-11T03:48:28.889Z,1.42
2023-03-11T03:50:58.172Z,1.73
2023-03-11T03:53:27.045Z,1.73
2023-03-11T03:55:56.189Z,2.13
2023-03-11T03:58:26.959Z,1.80
2023-03-11T04:00:58.014Z,1.95
2023-03-11T04:03:27.508Z,1.67
2023-03-11T04:06:11.574Z,3.50
2023-03-11T04:08:41.048Z,6.90
2023-03-11T04:11:11.648Z,4.60
2023-03-11T04:13:44.694Z,4.22
2023-03-11T04:16:18.425Z,3.83
2023-03-11T04:18:47.440Z,3.33
2023-03-11T04:21:17.033Z,4.88
2023-03-11T04:23:46.701Z,4.45
2023-03-11T04:26:17.879Z,4.78
2023-03-11T04:28:48.208Z,14.23
2023-03-11T04:31:17.769Z,3.13
2023-03-11T04:33:46.659Z,3.20
2023-03-11T04:36:15.668Z,3.42
2023-03-11T04:38:45.886Z,7.22
2023-03-11T04:41:16.492Z,7.35
2023-03-11T04:43:48.301Z,1.88
2023-03-11T04:46:17.438Z,1.95
2023-03-11T04:48:46.659Z,3.13
2023-03-11T04:51:15.667Z,2.80
2023-03-11T04:53:44.828Z,4.85
2023-03-11T04:56:14.335Z,4.43
2023-03-11T04:58:43.395Z,10.65
2023-03-11T05:01:14.024Z,5.22
2023-03-11T05:03:43.461Z,8.32
2023-03-11T05:06:13.553Z,5.40
2023-03-11T05:08:42.760Z,5.03
2023-03-11T05:11:11.850Z,4.38
2023-03-11T05:13:41.267Z,1.90
2023-03-11T05:16:10.544Z,1.85
2023-03-11T05:18:41.078Z,1.60
2023-03-11T05:21:10.588Z,1.85
2023-03-11T05:23:39.696Z,1.98
2023-03-11T05:26:08.920Z,1.20
2023-03-11T05:28:38.205Z,1.90
2023-03-11T05:31:10.124Z,1.92
2023-03-11T05:33:41.956Z,1.70
2023-03-11T05:36:14.306Z,2.28
2023-03-11T05:38:46.060Z,1.77
2023-03-11T05:41:16.583Z,1.67
2023-03-11T05:43:46.456Z,1.45
2023-03-11T05:46:16.651Z,1.63
2023-03-11T05:48:47.545Z,1.42
2023-03-11T05:51:16.906Z,1.42
2023-03-11T05:53:49.858Z,1.60
2023-03-11T05:56:30.395Z,0.80
2023-03-11T05:58:59.787Z,0.65
2023-03-11T06:01:32.072Z,1.17
2023-03-11T06:04:03.372Z,2.30
2023-03-11T06:06:32.712Z,1.90
2023-03-11T06:09:04.175Z,0.90
2023-03-11T06:11:33.264Z,1.27
2023-03-11T06:14:02.262Z,0.93
2023-03-11T06:16:31.529Z,1.50
2023-03-11T06:19:05.162Z,7.25
2023-03-11T06:21:38.923Z,2.85
2023-03-11T06:24:08.684Z,1.33
2023-03-11T06:26:37.706Z,1.73
2023-03-11T06:29:08.830Z,0.85
2023-03-11T06:31:37.769Z,1.50
2023-03-11T06:34:12.745Z,4.50
2023-03-11T06:36:41.855Z,2.38
2023-03-11T06:39:14.113Z,1.30
2023-03-11T06:41:43.655Z,1.85
2023-03-11T06:44:14.261Z,2.15
2023-03-11T06:46:44.276Z,1.45
2023-03-11T06:49:15.495Z,1.45
2023-03-11T06:51:44.831Z,1.40
2023-03-11T06:54:15.884Z,1.27
2023-03-11T06:56:44.740Z,1.45
2023-03-11T06:59:16.148Z,1.35
2023-03-11T07:01:46.475Z,1.27
2023-03-11T07:04:17.403Z,1.20
2023-03-11T07:06:46.430Z,0.73
2023-03-11T07:09:22.386Z,0.73
2023-03-11T07:11:51.308Z,0.70
2023-03-11T07:14:26.686Z,0.75
2023-03-11T07:16:58.304Z,0.57
2023-03-11T07:19:36.913Z,0.30
2023-03-11T07:22:05.809Z,0.32
2023-03-11T07:24:34.707Z,0.50
2023-03-11T07:27:03.774Z,0.30
2023-03-11T07:29:32.615Z,0.35
2023-03-11T07:32:02.105Z,0.38
2023-03-11T07:34:30.979Z,0.17
2023-03-11T07:37:02.109Z,0.15
2023-03-11T07:39:31.141Z,0.50
2023-03-11T07:42:00.072Z,0.30
2023-03-11T07:44:36.884Z,0.30
2023-03-11T07:47:06.728Z,0.40
2023-03-11T07:49:37.454Z,0.30
2023-03-11T07:52:08.182Z,0.40
2023-03-11T07:54:37.149Z,0.40
2023-03-11T07:57:07.479Z,0.30
2023-03-11T07:59:36.359Z,0.30
2023-03-11T08:02:05.432Z,0.22
2023-03-11T08:04:34.442Z,0.20
2023-03-11T08:07:04.023Z,0.50
2023-03-11T08:09:35.778Z,0.30
2023-03-11T08:12:05.351Z,0.40
2023-03-11T08:14:34.247Z,0.30
2023-03-11T08:17:03.664Z,0.38
2023-03-11T08:19:32.749Z,0.20
2023-03-11T08:22:03.270Z,0.20
2023-03-11T08:24:32.182Z,0.32
2023-03-11T08:27:03.280Z,0.32
2023-03-11T08:29:32.170Z,0.10
2023-03-11T08:32:01.158Z,0.45
2023-03-11T08:34:30.035Z,0.10
2023-03-11T08:36:58.974Z,0.17
2023-03-11T08:39:27.752Z,0.20
2023-03-11T08:41:57.215Z,0.20
2023-03-11T08:44:27.557Z,0.28
2023-03-11T08:46:56.492Z,0.30
2023-03-11T08:49:25.425Z,0.32
2023-03-11T08:51:54.645Z,0.93
2023-03-11T08:54:23.477Z,0.45
2023-03-11T08:56:52.266Z,0.43
2023-03-11T08:59:21.726Z,0.30
2023-03-11T09:01:51.952Z,0.52
2023-03-11T09:04:20.796Z,0.15
2023-03-11T09:06:50.039Z,0.28
2023-03-11T09:09:20.433Z,0.60
2023-03-11T09:11:50.022Z,0.50
2023-03-11T09:14:18.864Z,0.43
2023-03-11T09:16:47.653Z,0.15
2023-03-11T09:19:17.871Z,0.10
2023-03-11T09:21:46.752Z,0.38
2023-03-11T09:24:15.611Z,0.28
2023-03-11T09:26:44.436Z,0.20
2023-03-11T09:29:13.293Z,0.30
2023-03-11T09:31:42.450Z,0.50
2023-03-11T09:34:13.950Z,0.20
2023-03-11T09:36:45.834Z,0.35
2023-03-11T09:39:14.915Z,0.20
2023-03-11T09:41:57.854Z,0.22
2023-03-11T09:44:35.001Z,0.22
2023-03-11T09:47:42.236Z,0.28
2023-03-11T09:50:18.960Z,0.20
2023-03-11T09:52:57.329Z,0.25
2023-03-11T09:55:33.827Z,0.52
2023-03-11T09:58:09.945Z,0.22
2023-03-11T10:00:39.174Z,0.63
2023-03-11T10:03:17.919Z,0.20
2023-03-11T10:05:47.844Z,1.08
2023-03-11T10:08:26.686Z,0.40
2023-03-11T10:11:07.201Z,0.52
2023-03-11T10:13:42.672Z,0.47
2023-03-11T10:16:21.186Z,0.60
2023-03-11T10:19:02.120Z,0.50
2023-03-11T10:21:42.824Z,0.40
2023-03-11T10:24:34.272Z,0.75
2023-03-11T10:27:09.656Z,0.30
2023-03-11T10:29:49.428Z,0.20
2023-03-11T10:32:25.458Z,0.47
2023-03-11T10:34:59.383Z,0.50
2023-03-11T10:37:47.961Z,0.20
2023-03-11T10:40:29.551Z,0.35
2023-03-11T10:43:02.045Z,0.32
2023-03-11T10:45:37.786Z,0.60
2023-03-11T10:48:11.127Z,0.50
2023-03-11T10:50:50.837Z,0.30
2023-03-11T10:53:21.297Z,0.65
2023-03-11T10:55:53.025Z,0.40
2023-03-11T10:58:23.888Z,0.40
2023-03-11T11:01:05.137Z,0.30
2023-03-11T11:03:34.985Z,0.32
2023-03-11T11:06:06.729Z,0.40
2023-03-11T11:08:35.671Z,0.70
2023-03-11T11:11:21.432Z,0.85
2023-03-11T11:13:57.904Z,1.95
2023-03-11T11:16:27.515Z,0.40
2023-03-11T11:19:04.985Z,0.38
2023-03-11T11:21:37.273Z,0.98
2023-03-11T11:24:15.633Z,0.50
2023-03-11T11:27:04.051Z,0.52
2023-03-11T11:29:34.729Z,0.40
2023-03-11T11:32:19.241Z,0.43
2023-03-11T11:35:02.226Z,0.22
2023-03-11T11:37:35.016Z,0.20
2023-03-11T11:40:11.665Z,0.40
2023-03-11T11:42:46.883Z,0.82
2023-03-11T11:45:22.987Z,2.03
2023-03-11T11:47:56.945Z,0.60
2023-03-11T11:50:32.990Z,0.20
2023-03-11T11:53:12.307Z,0.90
2023-03-11T11:55:45.767Z,0.57
2023-03-11T11:58:16.305Z,1.00
2023-03-11T12:00:54.006Z,0.50
2023-03-11T12:03:43.666Z,0.52
2023-03-11T12:06:23.278Z,0.50
2023-03-11T12:09:05.531Z,0.43
2023-03-11T12:11:41.900Z,0.52
2023-03-11T12:14:20.287Z,0.50
2023-03-11T12:16:57.005Z,0.43
2023-03-11T12:19:36.393Z,0.68
2023-03-11T12:22:47.606Z,1.08
2023-03-11T12:25:32.892Z,1.63
2023-03-11T12:28:10.872Z,0.47
2023-03-11T12:30:45.501Z,0.63
2023-03-11T12:33:19.163Z,0.77
2023-03-11T12:35:56.056Z,0.50
2023-03-11T12:38:32.886Z,0.70
2023-03-11T12:41:05.674Z,0.55
2023-03-11T12:44:11.552Z,0.60
2023-03-11T12:47:30.836Z,0.60
2023-03-11T12:50:33.283Z,0.52
2023-03-11T12:53:03.964Z,0.45
2023-03-11T12:55:35.600Z,0.60
2023-03-11T12:58:38.624Z,0.35
2023-03-11T13:01:21.330Z,0.52
2023-03-11T13:04:03.746Z,0.50
2023-03-11T13:06:56.747Z,1.15
2023-03-11T13:09:27.427Z,0.90
2023-03-11T13:11:56.279Z,0.63
2023-03-11T13:14:31.170Z,0.52
2023-03-11T13:17:26.306Z,0.95
2023-03-11T13:19:56.571Z,0.55
2023-03-11T13:23:16.279Z,0.45
2023-03-11T13:26:17.538Z,0.68
2023-03-11T13:28:58.216Z,0.60
2023-03-11T13:31:45.433Z,1.23
2023-03-11T13:34:18.900Z,0.70
2023-03-11T13:36:58.729Z,1.00
2023-03-11T13:39:47.070Z,0.88
2023-03-11T13:42:25.231Z,1.02
2023-03-11T13:44:54.424Z,1.48
2023-03-11T13:47:24.560Z,2.25
2023-03-11T13:50:00.908Z,3.42
2023-03-11T13:52:33.990Z,3.22
2023-03-11T13:55:06.549Z,3.33
2023-03-11T13:57:38.141Z,2.88
2023-03-11T14:00:17.153Z,4.93
2023-03-11T14:02:51.749Z,3.72
2023-03-11T14:05:24.368Z,2.38
2023-03-11T14:07:53.643Z,2.40
2023-03-11T14:10:26.730Z,2.83
2023-03-11T14:13:15.380Z,2.38
2023-03-11T14:15:49.467Z,1.48
2023-03-11T14:18:35.477Z,1.83
2023-03-11T14:21:06.195Z,3.67
2023-03-11T14:23:37.321Z,3.72
2023-03-11T14:26:08.743Z,2.58
2023-03-11T14:28:45.126Z,5.70
2023-03-11T14:31:26.859Z,2.00
2023-03-11T14:33:57.670Z,1.17
2023-03-11T14:36:26.541Z,0.40
2023-03-11T14:38:55.396Z,0.30
2023-03-11T14:41:24.386Z,0.52
2023-03-11T14:43:55.928Z,0.50
2023-03-11T14:46:30.812Z,0.50
2023-03-11T14:49:01.987Z,0.63
2023-03-11T14:51:35.128Z,0.70
2023-03-11T14:54:08.760Z,1.02
2023-03-11T14:56:41.243Z,0.65
2023-03-11T14:59:16.409Z,2.33
2023-03-11T15:04:31.533Z,1.63
2023-03-11T15:07:02.056Z,0.68
2023-03-11T15:09:31.250Z,0.70
2023-03-11T15:12:02.092Z,0.73
2023-03-11T15:14:35.318Z,0.70
2023-03-11T15:17:33.961Z,0.60
2023-03-11T15:20:23.657Z,0.50
2023-03-11T15:22:58.304Z,0.60
2023-03-11T15:25:28.254Z,0.60
2023-03-11T15:27:57.308Z,2.50
2023-03-11T15:30:29.980Z,0.75
2023-03-11T15:32:59.943Z,3.70
2023-03-11T15:35:29.949Z,6.13
2023-03-11T15:38:25.362Z,7.95
2023-03-11T15:40:56.086Z,8.90
2023-03-11T15:43:28.735Z,12.55
2023-03-11T15:46:01.239Z,14.48
2023-03-11T15:48:31.424Z,7.35
2023-03-11T15:51:01.565Z,2.13
2023-03-11T15:53:31.569Z,4.68
2023-03-11T15:56:07.811Z,1.90
2023-03-11T15:58:38.777Z,1.27
2023-03-11T16:01:09.022Z,2.28
2023-03-11T16:03:39.131Z,3.85
2023-03-11T16:06:08.233Z,2.60
2023-03-11T16:08:37.071Z,0.80
2023-03-11T16:11:06.696Z,0.80
2023-03-11T16:13:35.525Z,4.10
2023-03-11T16:16:04.889Z,2.95
2023-03-11T16:18:35.827Z,2.30
2023-03-11T16:21:10.080Z,1.70
2023-03-11T16:23:51.247Z,1.67
2023-03-11T16:26:23.645Z,4.95
2023-03-11T16:28:52.484Z,4.22
2023-03-11T16:31:21.372Z,4.68
2023-03-11T16:33:51.940Z,3.95
2023-03-11T16:36:20.846Z,2.80
2023-03-11T16:38:51.433Z,3.08
2023-03-11T16:41:20.737Z,3.47
2023-03-11T16:43:49.573Z,2.50
2023-03-11T16:46:18.364Z,1.73
2023-03-11T16:48:47.240Z,1.73
2023-03-11T16:51:17.471Z,1.77
2023-03-11T16:53:46.358Z,1.40
2023-03-11T16:56:15.361Z,1.52
2023-03-11T16:58:47.105Z,1.33
2023-03-11T17:01:17.031Z,1.02
2023-03-11T17:03:48.726Z,1.60
2023-03-11T17:06:20.184Z,1.75
2023-03-11T17:08:50.678Z,1.20
2023-03-11T17:11:21.267Z,2.97
2023-03-11T17:13:50.842Z,1.33
2023-03-11T17:16:19.802Z,1.42
2023-03-11T17:18:48.719Z,1.42
2023-03-11T17:21:19.560Z,3.20
2023-03-11T17:23:48.454Z,1.02
2023-03-11T17:26:18.359Z,1.65
2023-03-11T17:28:48.268Z,4.80
2023-03-11T17:31:17.973Z,5.20
2023-03-11T17:33:47.321Z,8.40
2023-03-11T17:36:19.022Z,4.15
2023-03-11T17:38:48.707Z,1.10
2023-03-11T17:41:18.657Z,1.30
2023-03-11T17:43:50.329Z,0.75
2023-03-11T17:46:22.494Z,1.63
2023-03-11T17:48:51.994Z,1.05
2023-03-11T17:51:24.151Z,1.17
2023-03-11T17:53:55.696Z,1.63
2023-03-11T17:56:24.916Z,1.30
2023-03-11T17:58:53.804Z,1.30
2023-03-11T18:01:24.162Z,2.20
2023-03-11T18:03:53.375Z,2.53
2023-03-11T18:06:24.388Z,1.90
2023-03-11T18:08:53.605Z,8.95
2023-03-11T18:11:25.761Z,3.83
2023-03-11T18:13:55.299Z,1.63
2023-03-11T18:16:25.868Z,2.15
2023-03-11T18:18:55.603Z,2.30
2023-03-11T18:21:27.301Z,1.80
2023-03-11T18:23:57.206Z,3.63
2023-03-11T18:26:27.670Z,2.00
2023-03-11T18:28:57.302Z,3.38
2023-03-11T18:31:27.327Z,1.60
2023-03-11T18:33:58.108Z,1.63
2023-03-11T18:36:30.368Z,2.83
2023-03-11T18:39:00.480Z,6.32
2023-03-11T18:41:32.332Z,2.67
2023-03-11T18:44:02.138Z,7.95
2023-03-11T18:46:32.654Z,7.85
2023-03-11T18:49:03.565Z,3.60
2023-03-11T18:51:34.238Z,5.10
2023-03-11T18:54:04.200Z,4.20
2023-03-11T18:56:33.015Z,7.38
2023-03-11T18:59:02.585Z,2.67
2023-03-11T19:01:31.943Z,1.40
2023-03-11T19:04:01.157Z,0.93
2023-03-11T19:06:30.663Z,1.33
2023-03-11T19:09:01.146Z,1.02
2023-03-11T19:11:30.012Z,1.00
2023-03-11T19:14:00.069Z,0.55
2023-03-11T19:16:29.696Z,1.05
2023-03-11T19:18:58.782Z,0.70
2023-03-11T19:21:27.634Z,0.50
2023-03-11T19:24:00.111Z,0.52
2023-03-11T19:26:44.229Z,0.77
2023-03-11T19:29:14.805Z,0.73
2023-03-11T19:31:45.411Z,0.65
2023-03-11T19:34:14.332Z,0.55
2023-03-11T19:36:43.207Z,4.00
2023-03-11T19:39:12.041Z,2.88
2023-03-11T19:41:42.300Z,1.45
2023-03-11T19:44:11.125Z,0.50
2023-03-11T19:46:40.090Z,1.65
2023-03-11T19:49:09.032Z,0.75
2023-03-11T19:51:48.997Z,1.02
2023-03-11T19:54:18.779Z,1.77
2023-03-11T19:56:49.165Z,0.70
2023-03-11T19:59:17.997Z,1.42
2023-03-11T20:01:47.009Z,0.80
2023-03-11T20:04:16.512Z,0.70
2023-03-11T20:06:46.205Z,0.73
2023-03-11T20:09:16.211Z,0.93
2023-03-11T20:11:46.356Z,1.40
2023-03-11T20:14:16.797Z,1.05
2023-03-11T20:16:45.862Z,1.67
2023-03-11T20:19:14.853Z,1.90
2023-03-11T20:21:45.941Z,2.08
2023-03-11T20:24:15.229Z,2.10
2023-03-11T20:26:44.264Z,2.17
2023-03-11T20:29:13.246Z,1.58
2023-03-11T20:31:44.642Z,2.00
2023-03-11T20:34:13.915Z,2.55
2023-03-11T20:36:43.084Z,2.78
2023-03-11T20:39:12.001Z,3.22
2023-03-11T20:41:42.193Z,3.10
2023-03-11T20:44:14.306Z,0.90
2023-03-11T20:46:45.029Z,1.80
2023-03-11T20:49:14.071Z,1.55
2023-03-11T20:51:44.041Z,3.97
2023-03-11T20:54:13.000Z,2.35
2023-03-11T20:56:42.739Z,3.95
2023-03-11T20:59:14.209Z,2.20
2023-03-11T21:01:45.879Z,2.03
2023-03-11T21:04:16.710Z,1.55
2023-03-11T21:06:45.806Z,1.58
2023-03-11T21:09:15.853Z,1.95
2023-03-11T21:11:44.966Z,1.27
2023-03-11T21:14:16.166Z,2.20
2023-03-11T21:16:46.829Z,0.50
2023-03-11T21:19:15.943Z,0.98
2023-03-11T21:21:44.998Z,6.38
2023-03-11T21:24:14.062Z,1.13
2023-03-11T21:26:43.366Z,2.55
2023-03-11T21:29:12.460Z,4.18
2023-03-11T21:31:41.472Z,0.90
2023-03-11T21:34:12.395Z,2.45
2023-03-11T21:36:41.556Z,0.60
2023-03-11T21:39:10.719Z,0.88
2023-03-11T21:41:40.040Z,0.57
2023-03-11T21:44:09.104Z,0.43
2023-03-11T21:46:38.102Z,0.40
2023-03-11T21:49:07.105Z,0.47
2023-03-11T21:51:37.373Z,0.73
2023-03-11T21:54:06.477Z,0.65
2023-03-11T21:56:35.396Z,0.80
2023-03-11T21:59:05.013Z,0.60
2023-03-11T22:01:34.190Z,0.68
2023-03-11T22:04:03.972Z,0.35
2023-03-11T22:06:33.557Z,0.47
2023-03-11T22:09:05.027Z,0.40
2023-03-11T22:11:34.091Z,0.50
2023-03-11T22:14:03.853Z,0.50
2023-03-11T22:16:32.653Z,0.50
2023-03-11T22:19:02.150Z,2.95
2023-03-11T22:21:31.056Z,1.23
2023-03-11T22:24:00.013Z,1.02
2023-03-11T22:26:30.263Z,1.20
2023-03-11T22:28:59.058Z,2.60
2023-03-11T22:31:27.942Z,1.30
2023-03-11T22:33:56.800Z,4.50
2023-03-11T22:36:25.730Z,1.10
2023-03-11T22:38:54.545Z,3.13
2023-03-11T22:41:23.464Z,2.67
2023-03-11T22:43:53.698Z,2.58
2023-03-11T22:46:22.673Z,2.30
2023-03-11T22:48:51.510Z,3.17
2023-03-11T22:51:20.425Z,2.95
2023-03-11T22:53:49.308Z,1.90
2023-03-11T22:56:19.267Z,2.75
2023-03-11T22:58:48.058Z,2.35
2023-03-11T23:01:18.527Z,2.70
2023-03-11T23:03:47.665Z,2.97
2023-03-11T23:06:18.460Z,2.20
2023-03-11T23:08:48.008Z,2.55
2023-03-11T23:11:21.151Z,2.67
2023-03-11T23:13:50.216Z,2.60
2023-03-11T23:16:22.575Z,2.00
2023-03-11T23:18:53.150Z,2.90
2023-03-11T23:21:24.805Z,3.00
2023-03-11T23:23:54.295Z,2.20
2023-03-11T23:26:24.101Z,2.00
2023-03-11T23:28:53.763Z,2.65
2023-03-11T23:31:26.102Z,2.47
2023-03-11T23:33:55.356Z,2.63
2023-03-11T23:36:27.093Z,2.63
2023-03-11T23:38:55.890Z,2.42
2023-03-11T23:41:24.940Z,2.60
2023-03-11T23:43:53.806Z,2.00
2023-03-11T23:46:24.092Z,2.28
2023-03-11T23:48:52.883Z,2.40
2023-03-11T23:51:21.790Z,2.33
2023-03-11T23:53:50.593Z,3.08
2023-03-11T23:56:19.777Z,3.10
2023-03-11T23:58:48.718Z,2.47
